• Join FlightAware (Why Join?)
  • Login
  • US Flag 
03:29AM EDT


 

Airport Tracker/Info


-or-


 

Live Flight TrackerFlight Track Log ✈ FLG4006 ✈ 01-Sep-2013 ✈ KIND - KMSP

Flight Track Log - Related Links

Times and Time Zones

All times are in EDT time to prevent confusion due to time zone crossing. See the FLG4006 flight status page for this flight to view local times or setup timezone preferences in your user account.

Time Position Orientation Groundspeed Altitude Reporting Facility
EDT Latitude Longitude Course Direction KTS MPH feet Rate Location/Type
04:11PM 39.7000 -86.3167 229° Southwest 150 173 1,800  Level Indianapolis TRACON
04:12PM 39.6667 -86.3667 229° Southwest 176 203 3,000 1,620 Climbing Indianapolis TRACON
04:13PM 39.6853 -86.4022 304° West 190 219 4,300 1,560 Climbing Indianapolis Center
04:14PM 39.7558 -86.4147 352° North 247 284 5,800 780 Climbing Indianapolis Center
04:15PM 39.8311 -86.4003 North 274 315 6,000 300 Climbing Indianapolis Center
04:16PM 39.9042 -86.3553 25° Northeast 285 328 6,500 1,260 Climbing Indianapolis Center
04:17PM 39.9767 -86.3100 26° Northeast 287 330 8,700 1,980 Climbing Indianapolis Center
04:18PM 40.0492 -86.3436 340° North 286 329 10,600 1,560 Climbing Indianapolis Center
04:19PM 40.1108 -86.4511 307° West 308 354 11,900 1,320 Climbing Indianapolis Center
04:20PM 40.1683 -86.5447 309° West 327 376 13,400 1,320 Climbing Indianapolis Center
04:21PM 40.2336 -86.6311 315° West 335 386 14,700 1,140 Climbing Chicago Center
04:22PM 40.3056 -86.7156 318° Northwest 349 402 15,900 1,200 Climbing Chicago Center
04:23PM 40.4175 -86.7733 339° North 363 418 17,200 1,200 Climbing Chicago Center
04:24PM 40.5128 -86.8222 339° North 367 422 18,500 1,080 Climbing Chicago Center
04:25PM 40.6081 -86.8722 338° Northwest 369 425 19,500 960 Climbing Chicago Center
04:26PM 40.7083 -86.9264 338° Northwest 372 428 20,500 900 Climbing Chicago Center
04:27PM 40.8064 -86.9781 338° Northwest 382 440 21,400 780 Climbing Chicago Center
04:28PM 40.9014 -87.0325 337° Northwest 379 436 22,200 720 Climbing Chicago Center
04:29PM 40.9994 -87.0867 337° Northwest 385 443 22,900 720 Climbing Chicago Center
04:30PM 41.1197 -87.1500 338° Northwest 391 450 23,700 720 Climbing Chicago Center
04:31PM 41.2192 -87.2047 338° Northwest 391 450 24,400 660 Climbing Chicago Center
04:32PM 41.3156 -87.2594 337° Northwest 383 441 25,100 540 Climbing Chicago Center
04:33PM 41.4153 -87.3156 337° Northwest 389 448 25,600 480 Climbing Chicago Center
04:34PM 41.5167 -87.3717 337° Northwest 395 455 26,100 480 Climbing Chicago Center
04:35PM 41.6381 -87.4381 338° Northwest 397 457 26,600 480 Climbing Chicago Center
04:36PM 41.7389 -87.4956 337° Northwest 397 457 27,100 480 Climbing Chicago Center
04:37PM 41.8408 -87.5514 338° Northwest 400 460 27,600 480 Climbing Chicago Center
04:38PM 41.9350 -87.6217 331° Northwest 392 451 28,100 480 Climbing Chicago Center
04:39PM 42.0194 -87.7106 322° Northwest 391 450 28,600 480 Climbing Chicago Center
04:41PM 42.1194 -87.8147 322° Northwest 384 442 29,200 480 Climbing Chicago Center
04:42PM 42.2031 -87.9033 322° Northwest 385 443 29,700 360 Climbing Chicago Center
04:43PM 42.2861 -87.9900 322° Northwest 381 438 30,000 120 Climbing Chicago Center
04:44PM 42.3719 -88.0822 322° Northwest 391 450 30,000  Level Chicago Center
04:45PM 42.4597 -88.1756 322° Northwest 398 458 30,000  Level Chicago Center
04:46PM 42.5481 -88.2711 321° Northwest 405 466 30,000  Level Chicago Center
04:47PM 42.6517 -88.3825 322° Northwest 405 466 30,000  Level Chicago Center
04:48PM 42.7403 -88.4778 322° Northwest 405 466 30,000  Level Chicago Center
04:49PM 42.8289 -88.5733 322° Northwest 406 467 30,000  Level Chicago Center
04:50PM 42.9181 -88.6692 322° Northwest 405 466 30,000  Level Chicago Center
04:51PM 43.0075 -88.7681 321° Northwest 410 472 30,000  Level Chicago Center
04:52PM 43.0972 -88.8656 322° Northwest 409 471 30,000  Level Chicago Center
04:53PM 43.1883 -88.9647 322° Northwest 413 475 30,000  Level Chicago Center
04:54PM 43.2769 -89.0633 321° Northwest 410 472 30,000  Level Chicago Center
04:55PM 43.3814 -89.1783 321° Northwest 409 471 30,000  Level Chicago Center
04:56PM 43.4717 -89.2783 321° Northwest 411 473 30,000  Level Chicago Center
04:57PM 43.5617 -89.3778 321° Northwest 413 475 30,000  Level Chicago Center
04:58PM 43.6497 -89.4775 321° Northwest 411 473 30,000  Level Chicago Center
04:59PM 43.7389 -89.5778 321° Northwest 410 472 30,000  Level Chicago Center
05:00PM 43.8272 -89.6767 321° Northwest 408 470 30,000  Level Chicago Center
05:01PM 43.9158 -89.7764 321° Northwest 409 471 30,000  Level Chicago Center
05:02PM 44.0036 -89.8764 321° Northwest 408 470 30,000  Level Chicago Center
05:03PM 44.0756 -90.0267 304° West 405 466 30,000  Level Chicago Center
05:04PM 44.1289 -90.1675 298° West 409 471 30,000  Level Chicago Center
05:05PM 44.1786 -90.3075 296° West 405 466 30,000 -600 Level Minneapolis Center
05:06PM 44.2306 -90.4500 297° West 410 472 28,800 -1,260 Descending Minneapolis Center
05:07PM 44.2803 -90.5853 297° West 422 486 27,400 -1,500 Descending Minneapolis Center
05:08PM 44.3383 -90.7450 297° West 426 490 25,800 -1,560 Descending Minneapolis Center
05:09PM 44.3900 -90.8939 296° West 428 493 24,300 -1,500 Descending Minneapolis Center
05:10PM 44.4433 -91.0397 297° West 427 491 22,800 -1,620 Descending Minneapolis Center
05:11PM 44.5053 -91.2158 296° West 423 487 21,000 -1,620 Descending Minneapolis Center
05:12PM 44.5533 -91.3550 296° West 408 470 19,500 -1,560 Descending Minneapolis Center
05:13PM 44.6022 -91.4911 297° West 397 457 17,900 -1,500 Descending Minneapolis Center
05:14PM 44.6483 -91.6297 295° West 394 453 16,400 -1,380 Descending Minneapolis Center
05:15PM 44.6947 -91.7631 296° West 387 445 15,100 -1,320 Descending Minneapolis Center
05:16PM 44.7406 -91.8961 296° West 381 438 13,800 -1,320 Descending Minneapolis Center
05:18PM 44.7853 -92.0267 296° West 371 427 12,500 -1,380 Descending Minneapolis Center
05:19PM 44.8361 -92.1756 296° West 353 406 11,000 -1,260 Descending Minneapolis Center
05:20PM 44.8744 -92.2969 294° West 342 394 9,900 -540 Descending Minneapolis Center
05:21PM 44.8389 -92.4169 247° West 335 386 10,000 -420 Climbing Minneapolis Center
05:22PM 44.7947 -92.5119 237° Southwest 295 339 9,100 -540 Descending Minneapolis Center
05:23PM 44.7581 -92.5875 236° Southwest 240 276 9,000 -840 Descending Minneapolis Center
05:24PM 44.7228 -92.6608 236° Southwest 227 261 7,400 -1,020 Descending Minneapolis Center
05:25PM 44.6994 -92.7381 247° West 210 242 7,000 -540 Descending Minneapolis Center
05:26PM 44.7092 -92.8283 279° West 197 227 6,400 -540 Descending Minneapolis Center
05:27PM 44.7383 -92.8897 304° West 188 216 6,000 -720 Descending Minneapolis Center
05:28PM 44.7639 -92.9500 301° West 181 208 5,000 -960 Descending Minneapolis Center
05:29PM 44.7886 -93.0067 302° West 172 198 4,100 -900 Descending Minneapolis Center
05:30PM 44.8122 -93.0606 302° West 165 190 3,200 -900 Descending Minneapolis Center
05:31PM 44.8356 -93.1144 301° West 164 189 2,300 -840 Descending Minneapolis Center
05:32PM 44.8561 -93.1608 302° West 143 165 1,600 -720 Descending Minneapolis Center
05:34PM 44.8667 -93.2167 270° West  Level FlightAware Approximate
05:41PM 44.8820 -93.2218 270° West  Level Estimated